Time;durP1;ratioP1;P1;durP2;ratioP2;P2;SDS_P1;SDS_P2;PMS_P1;PMS_P2;Temp;Humidity;BMP_temperature;BMP_pressure;BME280_temperature;BME280_humidity;BME280_pressure;Samples;Min_cycle;Max_cycle;Signal;HPM_P1;HPM_P2
2022/01/09 00:01:04;;;;;;;73.25;40.78;;;77.40;1996.80;;;;;;5056676;28;20486;-59
2022/01/09 00:03:30;;;;;;;75.60;41.75;;;77.40;2048.00;;;;;;5056861;28;20024;-63
2022/01/09 00:05:56;;;;;;;69.25;40.05;;;77.50;2022.40;;;;;;5057131;28;20036;-67
2022/01/09 00:08:21;;;;;;;74.15;41.95;;;77.40;1996.80;;;;;;5055712;28;20382;-69
2022/01/09 00:10:47;;;;;;;76.72;42.72;;;77.50;2048.00;;;;;;5055750;28;20035;-61
2022/01/09 00:13:14;;;;;;;69.60;39.53;;;77.50;2048.00;;;;;;5056494;28;20352;-61
2022/01/09 00:15:39;;;;;;;71.20;42.13;;;77.50;1996.80;;;;;;5056087;28;20108;-68
2022/01/09 00:18:05;;;;;;;76.75;43.25;;;77.50;1996.80;;;;;;5054569;28;20131;-61
2022/01/09 00:20:31;;;;;;;72.25;42.00;;;77.50;2048.00;;;;;;5056032;28;20052;-61
2022/01/09 00:22:57;;;;;;;66.45;39.53;;;77.50;2022.40;;;;;;5055323;28;20067;-63
2022/01/09 00:25:24;;;;;;;76.18;42.13;;;77.50;1971.20;;;;;;5053288;28;20033;-60
2022/01/09 00:27:51;;;;;;;73.05;39.45;;;77.50;2048.00;;;;;;5056027;28;20515;-60
2022/01/09 00:30:19;;;;;;;66.57;36.72;;;77.60;2022.40;;;;;;5055914;28;20032;-61
2022/01/09 00:32:45;;;;;;;70.13;39.38;;;77.60;1996.80;;;;;;5052008;28;20078;-64
2022/01/09 00:35:12;;;;;;;73.15;41.08;;;77.60;1971.20;;;;;;5055718;28;20037;-60
2022/01/09 00:37:38;;;;;;;79.38;41.58;;;77.50;1971.20;;;;;;5056006;28;20028;-68
2022/01/09 00:40:06;;;;;;;86.85;43.38;;;77.60;1971.20;;;;;;5052806;28;20079;-66
2022/01/09 00:42:31;;;;;;;81.57;40.05;;;77.60;1971.20;;;;;;5055730;28;20028;-60
2022/01/09 00:44:57;;;;;;;79.55;41.20;;;77.60;1971.20;;;;;;5054902;28;20025;-67
2022/01/09 00:47:23;;;;;;;69.93;41.10;;;77.70;1971.20;;;;;;5052920;28;20483;-71
2022/01/09 00:49:49;;;;;;;68.10;37.97;;;77.60;1971.20;;;;;;5054651;28;20083;-61
2022/01/09 00:52:15;;;;;;;68.93;38.35;;;77.70;1971.20;;;;;;5055585;28;20082;-60
2022/01/09 00:54:40;;;;;;;69.25;38.70;;;77.60;1971.20;;;;;;5055322;28;20028;-63
2022/01/09 00:57:06;;;;;;;71.25;38.33;;;77.60;1996.80;;;;;;5055121;28;20025;-61
2022/01/09 00:59:32;;;;;;;67.97;40.80;;;77.60;1996.80;;;;;;5055163;28;20552;-63
2022/01/09 01:01:58;;;;;;;66.70;38.25;;;77.60;1996.80;;;;;;5053697;28;20037;-62
2022/01/09 01:04:24;;;;;;;70.45;39.90;;;77.60;1996.80;;;;;;5055310;28;20063;-61
2022/01/09 01:06:51;;;;;;;68.93;37.20;;;77.60;1996.80;;;;;;5055359;28;20017;-60
2022/01/09 01:09:17;;;;;;;67.70;38.03;;;102.40;1971.20;;;;;;5055120;28;20029;-67
2022/01/09 01:11:43;;;;;;;66.78;39.35;;;77.70;1971.20;;;;;;5055046;28;20074;-68
2022/01/09 01:14:09;;;;;;;73.50;39.63;;;77.60;1996.80;;;;;;5053947;28;20059;-61
2022/01/09 01:16:35;;;;;;;66.05;38.03;;;77.70;1971.20;;;;;;5055085;28;20021;-61
2022/01/09 01:19:02;;;;;;;63.13;36.03;;;77.70;1996.80;;;;;;5055334;28;20047;-61
2022/01/09 01:21:28;;;;;;;62.55;37.58;;;77.70;1996.80;;;;;;5055688;28;20037;-59
2022/01/09 01:23:53;;;;;;;62.13;36.78;;;77.70;2022.40;;;;;;5055780;28;20044;-69
2022/01/09 01:26:19;;;;;;;64.15;36.63;;;77.70;2022.40;;;;;;5055311;28;20031;-65
2022/01/09 01:28:45;;;;;;;64.03;36.38;;;77.70;1996.80;;;;;;5054479;28;20048;-69
2022/01/09 01:31:11;;;;;;;60.00;36.28;;;77.70;1996.80;;;;;;5054587;28;20037;-60
2022/01/09 01:33:37;;;;;;;61.05;38.42;;;77.70;1996.80;;;;;;5054873;28;20494;-69
2022/01/09 01:36:04;;;;;;;66.18;38.60;;;77.70;1996.80;;;;;;5054105;28;20128;-70
2022/01/09 01:38:30;;;;;;;65.38;38.33;;;77.60;1971.20;;;;;;5054090;28;20032;-69
2022/01/09 01:40:57;;;;;;;67.45;37.05;;;102.40;1971.20;;;;;;5053478;28;20037;-67
2022/01/09 01:43:22;;;;;;;65.50;38.33;;;102.40;1971.20;;;;;;5054169;28;20068;-60
2022/01/09 01:45:48;;;;;;;70.72;40.20;;;77.70;1996.80;;;;;;5055005;28;20467;-62
2022/01/09 01:48:14;;;;;;;71.85;39.67;;;102.40;1996.80;;;;;;5054458;28;20036;-60
2022/01/09 01:50:41;;;;;;;75.07;38.45;;;102.40;2022.40;;;;;;5052952;28;20459;-63
2022/01/09 01:53:16;;;;;;;62.58;37.47;;;102.50;1996.80;;;;;;5051776;28;20106;-60
2022/01/09 01:55:44;;;;;;;73.60;39.08;;;102.50;1920.00;;;;;;5054070;28;20036;-64
2022/01/09 01:58:11;;;;;;;74.72;39.63;;;102.50;1971.20;;;;;;5051555;28;20047;-59
2022/01/09 02:00:39;;;;;;;65.93;37.05;;;102.40;1996.80;;;;;;5053521;28;20044;-66
2022/01/09 02:03:05;;;;;;;75.10;40.53;;;102.40;1971.20;;;;;;5053199;28;20029;-60
2022/01/09 02:05:31;;;;;;;68.70;39.30;;;102.40;1996.80;;;;;;5050794;28;20037;-61
2022/01/09 02:07:59;;;;;;;71.63;40.70;;;102.40;1971.20;;;;;;5054157;28;20418;-63
2022/01/09 02:10:26;;;;;;;63.33;37.30;;;102.40;1971.20;;;;;;5054203;28;20061;-62
2022/01/09 02:12:55;;;;;;;70.47;39.25;;;102.40;1996.80;;;;;;5052662;28;20051;-59
2022/01/09 02:15:29;;;;;;;68.45;39.33;;;102.50;1945.60;;;;;;5053528;28;20052;-68
2022/01/09 02:17:55;;;;;;;65.70;36.75;;;102.40;1996.80;;;;;;5051358;28;20033;-66
2022/01/09 02:20:22;;;;;;;66.72;37.72;;;102.50;1945.60;;;;;;5053851;28;20060;-60
2022/01/09 02:22:48;;;;;;;71.40;39.50;;;102.40;1971.20;;;;;;5052921;28;20128;-59
2022/01/09 02:25:15;;;;;;;71.20;38.65;;;102.40;1996.80;;;;;;5054223;28;20077;-60
2022/01/09 02:27:41;;;;;;;76.82;39.88;;;102.50;1920.00;;;;;;5054220;28;20021;-60
2022/01/09 02:30:08;;;;;;;66.65;37.72;;;102.40;1971.20;;;;;;5054116;28;20112;-59
2022/01/09 02:32:33;;;;;;;74.15;39.63;;;102.50;1920.00;;;;;;5054173;28;20359;-61
2022/01/09 02:34:59;;;;;;;70.90;39.95;;;102.40;1971.20;;;;;;5053940;28;20112;-60
2022/01/09 02:37:25;;;;;;;65.97;37.97;;;102.40;1971.20;;;;;;5053385;28;20017;-60
2022/01/09 02:39:50;;;;;;;69.55;40.05;;;102.40;1894.40;;;;;;5054190;28;20036;-60
2022/01/09 02:42:26;;;;;;;73.60;40.25;;;77.60;1996.80;;;;;;5053997;28;20483;-60
2022/01/09 02:44:54;;;;;;;71.05;40.05;;;77.70;1945.60;;;;;;5052823;28;20463;-60
2022/01/09 02:47:21;;;;;;;70.15;40.45;;;77.60;1971.20;;;;;;5053924;28;20039;-60
2022/01/09 02:49:50;;;;;;;73.22;39.15;;;77.50;1996.80;;;;;;5053661;28;20045;-61
2022/01/09 02:52:32;;;;;;;70.15;39.55;;;77.50;1971.20;;;;;;5053662;28;20114;-60
2022/01/09 02:55:11;;;;;;;68.07;39.55;;;77.50;1996.80;;;;;;5053878;28;20036;-62
2022/01/09 02:57:41;;;;;;;60.30;37.55;;;77.50;1971.20;;;;;;5052515;28;20033;-61
2022/01/09 03:00:10;;;;;;;63.65;38.55;;;77.30;1996.80;;;;;;5053440;28;20045;-61
2022/01/09 03:02:35;;;;;;;63.35;36.38;;;77.30;2022.40;;;;;;5053630;28;20432;-60
2022/01/09 03:05:02;;;;;;;60.30;36.03;;;77.40;1971.20;;;;;;5053522;28;20028;-59
2022/01/09 03:07:27;;;;;;;60.50;35.60;;;77.30;1996.80;;;;;;5053107;28;20025;-60
2022/01/09 03:09:53;;;;;;;61.47;35.97;;;77.30;2022.40;;;;;;5053717;28;20021;-60
2022/01/09 03:12:19;;;;;;;55.67;33.15;;;77.30;1971.20;;;;;;5053875;28;20360;-60
2022/01/09 03:14:46;;;;;;;58.70;34.72;;;77.20;1996.80;;;;;;5053713;28;20032;-60
2022/01/09 03:17:12;;;;;;;61.60;34.85;;;77.20;2022.40;;;;;;5053413;28;20391;-60
2022/01/09 03:19:38;;;;;;;61.65;37.63;;;77.20;1996.80;;;;;;5053466;28;20056;-60
2022/01/09 03:22:04;;;;;;;58.72;34.97;;;77.30;2022.40;;;;;;5053481;28;20021;-61
2022/01/09 03:24:30;;;;;;;56.70;33.85;;;77.40;2022.40;;;;;;5053543;28;20048;-61
2022/01/09 03:26:55;;;;;;;59.30;35.03;;;77.40;1971.20;;;;;;5052176;28;20037;-60
2022/01/09 03:29:21;;;;;;;59.65;35.15;;;77.50;1996.80;;;;;;5053747;28;20348;-60
2022/01/09 03:31:47;;;;;;;62.28;36.63;;;77.50;1996.80;;;;;;5051996;28;20048;-61
2022/01/09 03:34:13;;;;;;;56.50;34.00;;;77.30;1945.60;;;;;;5053176;28;20459;-61
2022/01/09 03:36:39;;;;;;;58.22;33.08;;;77.40;1971.20;;;;;;5053483;28;20032;-61
2022/01/09 03:39:05;;;;;;;57.95;34.20;;;77.40;1996.80;;;;;;5053374;28;20170;-60
2022/01/09 03:41:31;;;;;;;66.63;36.65;;;77.30;1945.60;;;;;;5053402;28;20040;-62
2022/01/09 03:43:56;;;;;;;63.60;37.17;;;77.20;1945.60;;;;;;5052812;28;20040;-61
2022/01/09 03:46:22;;;;;;;67.88;36.75;;;77.20;1996.80;;;;;;5053105;28;20460;-60
2022/01/09 03:48:48;;;;;;;68.32;38.42;;;77.10;1971.20;;;;;;5051896;28;20059;-61
2022/01/09 03:51:13;;;;;;;67.90;38.05;;;77.10;1945.60;;;;;;5053276;28;20037;-61
2022/01/09 03:53:40;;;;;;;70.75;36.42;;;77.10;1971.20;;;;;;5053235;28;20431;-61
2022/01/09 03:56:06;;;;;;;67.88;35.08;;;77.10;1996.80;;;;;;5052703;28;20487;-60
2022/01/09 03:58:35;;;;;;;61.20;33.97;;;77.00;1945.60;;;;;;5053053;28;20095;-60
2022/01/09 04:01:01;;;;;;;66.32;34.75;;;77.00;1945.60;;;;;;5052070;28;20045;-61
2022/01/09 04:03:27;;;;;;;64.07;35.08;;;77.00;1945.60;;;;;;5052928;28;20021;-61
2022/01/09 04:05:53;;;;;;;67.38;35.70;;;77.10;1971.20;;;;;;5053077;28;20029;-60
2022/01/09 04:08:19;;;;;;;68.80;35.42;;;77.10;1996.80;;;;;;5052972;28;20025;-61
2022/01/09 04:10:45;;;;;;;62.50;33.50;;;77.10;1945.60;;;;;;5053133;28;20108;-61
2022/01/09 04:13:12;;;;;;;58.00;32.20;;;77.10;1920.00;;;;;;5053187;28;20036;-61
2022/01/09 04:15:38;;;;;;;60.08;31.73;;;77.00;1996.80;;;;;;5051749;28;20029;-61
2022/01/09 04:18:05;;;;;;;59.63;32.70;;;77.10;1971.20;;;;;;5053030;28;20100;-61
2022/01/09 04:20:31;;;;;;;64.22;34.05;;;76.90;1945.60;;;;;;5055282;28;20549;-61
2022/01/09 04:22:58;;;;;;;64.43;36.28;;;76.90;1971.20;;;;;;5056482;28;20115;-61
2022/01/09 04:25:25;;;;;;;63.15;34.78;;;76.90;1996.80;;;;;;5056636;28;20083;-62
2022/01/09 04:27:51;;;;;;;67.25;36.90;;;76.90;1945.60;;;;;;5056538;28;20025;-61
2022/01/09 04:30:17;;;;;;;72.63;35.55;;;76.90;1945.60;;;;;;5056164;28;20490;-61
2022/01/09 04:32:44;;;;;;;76.50;36.17;;;76.90;1920.00;;;;;;5056083;28;20122;-61
2022/01/09 04:35:10;;;;;;;65.35;33.28;;;76.90;1920.00;;;;;;5056422;28;20039;-61
2022/01/09 04:37:37;;;;;;;58.65;31.65;;;76.80;1920.00;;;;;;5054695;28;20045;-60
2022/01/09 04:40:05;;;;;;;59.53;32.38;;;76.80;1920.00;;;;;;5055964;28;20033;-62
2022/01/09 04:42:39;;;;;;;58.42;30.75;;;76.80;1920.00;;;;;;5055924;28;20025;-61
2022/01/09 04:45:07;;;;;;;62.40;32.75;;;76.80;1920.00;;;;;;5056020;28;20029;-61
2022/01/09 04:47:33;;;;;;;62.17;32.38;;;52.00;1971.20;;;;;;5056124;28;20036;-60
2022/01/09 04:49:59;;;;;;;88.85;36.15;;;52.10;1996.80;;;;;;5056177;28;20391;-61
2022/01/09 04:52:31;;;;;;;67.47;34.00;;;76.80;2150.40;;;;;;5056013;28;20031;-60
2022/01/09 04:54:56;;;;;;;61.33;32.17;;;76.90;2201.60;;;;;;5055827;28;20073;-59
2022/01/09 04:57:22;;;;;;;56.00;29.38;;;77.00;2048.00;;;;;;5055462;28;20036;-60
2022/01/09 04:59:48;;;;;;;55.75;29.75;;;77.00;1920.00;;;;;;5055129;28;20075;-61
2022/01/09 05:02:14;;;;;;;56.17;30.70;;;77.00;1894.40;;;;;;5055770;28;20044;-60
2022/01/09 05:04:39;;;;;;;52.60;28.45;;;76.90;1945.60;;;;;;5054603;28;20033;-60
2022/01/09 05:07:05;;;;;;;55.70;28.55;;;76.90;1920.00;;;;;;5054338;28;20376;-61
2022/01/09 05:09:31;;;;;;;49.45;27.30;;;76.80;1920.00;;;;;;5055846;28;20495;-60
2022/01/09 05:11:57;;;;;;;43.20;25.25;;;76.80;1971.20;;;;;;5055514;28;20178;-61
2022/01/09 05:14:23;;;;;;;46.88;25.85;;;76.90;1894.40;;;;;;5055604;28;20031;-60
2022/01/09 05:16:49;;;;;;;43.90;24.80;;;76.80;1920.00;;;;;;5055719;28;20111;-60
2022/01/09 05:19:19;;;;;;;41.92;24.52;;;76.80;1945.60;;;;;;5055523;28;20025;-60
2022/01/09 05:21:45;;;;;;;41.92;23.42;;;76.90;1868.80;;;;;;5055254;28;20032;-60
2022/01/09 05:24:11;;;;;;;41.08;23.48;;;76.80;1920.00;;;;;;5055350;28;20044;-60
2022/01/09 05:26:38;;;;;;;41.60;23.92;;;76.90;1945.60;;;;;;5054154;28;20037;-60
2022/01/09 05:29:04;;;;;;;37.88;21.25;;;76.90;1843.20;;;;;;5055251;28;20104;-60
2022/01/09 05:31:29;;;;;;;41.83;23.05;;;76.90;1920.00;;;;;;5055126;28;20107;-61
2022/01/09 05:33:55;;;;;;;38.65;21.70;;;77.00;1894.40;;;;;;5055039;28;20037;-60
2022/01/09 05:36:21;;;;;;;39.90;22.20;;;76.90;1817.60;;;;;;5055116;28;20032;-62
2022/01/09 05:38:47;;;;;;;39.97;20.85;;;52.10;1920.00;;;;;;5055336;28;20040;-60
2022/01/09 05:41:13;;;;;;;38.67;22.08;;;76.80;1894.40;;;;;;5054914;28;20426;-60
2022/01/09 05:43:40;;;;;;;40.92;23.23;;;52.10;1868.80;;;;;;5055077;28;20057;-60
2022/01/09 05:46:06;;;;;;;49.00;25.65;;;52.00;1945.60;;;;;;5055174;28;20040;-60
2022/01/09 05:48:32;;;;;;;43.83;22.90;;;52.10;1868.80;;;;;;5054725;28;20021;-61
2022/01/09 05:50:57;;;;;;;46.03;24.25;;;51.90;1920.00;;;;;;5053754;28;20041;-61
2022/01/09 05:53:23;;;;;;;42.85;23.50;;;51.80;1971.20;;;;;;5055013;28;20028;-62
2022/01/09 05:55:49;;;;;;;41.05;23.23;;;51.80;1894.40;;;;;;5054721;28;20482;-61
2022/01/09 05:58:15;;;;;;;45.08;23.70;;;51.70;1945.60;;;;;;5054693;28;20040;-62
2022/01/09 06:00:41;;;;;;;46.42;23.20;;;51.70;1996.80;;;;;;5054695;28;20532;-60
2022/01/09 06:03:06;;;;;;;51.33;25.50;;;51.70;1945.60;;;;;;5055042;28;20029;-61
2022/01/09 06:05:32;;;;;;;46.10;25.05;;;51.60;1971.20;;;;;;5054421;28;20108;-61
2022/01/09 06:07:58;;;;;;;50.58;26.40;;;51.70;2022.40;;;;;;5054744;28;20033;-61
2022/01/09 06:10:24;;;;;;;55.28;26.65;;;51.60;1971.20;;;;;;5054606;28;20029;-61
2022/01/09 06:12:49;;;;;;;60.97;29.40;;;51.60;1971.20;;;;;;5054699;28;20025;-60
2022/01/09 06:15:15;;;;;;;58.65;29.20;;;51.70;1996.80;;;;;;5054524;28;20021;-61
2022/01/09 06:17:43;;;;;;;66.70;34.92;;;51.70;1945.60;;;;;;5054500;28;20116;-61
2022/01/09 06:20:11;;;;;;;74.22;38.83;;;51.80;1945.60;;;;;;5054085;28;20037;-60
2022/01/09 06:22:38;;;;;;;67.30;32.42;;;51.80;1996.80;;;;;;5054188;28;20035;-61
2022/01/09 06:25:04;;;;;;;65.13;31.60;;;51.80;1945.60;;;;;;5054356;28;20532;-60
2022/01/09 06:27:30;;;;;;;57.42;28.45;;;51.70;1945.60;;;;;;5054421;28;20053;-61
2022/01/09 06:29:56;;;;;;;60.95;29.13;;;51.70;1971.20;;;;;;5054078;28;20025;-61
2022/01/09 06:32:22;;;;;;;58.45;28.20;;;51.60;1996.80;;;;;;5053106;28;20048;-61
2022/01/09 06:34:48;;;;;;;63.00;29.15;;;51.50;1971.20;;;;;;5053817;28;20029;-61
2022/01/09 06:37:14;;;;;;;64.20;29.77;;;51.60;1996.80;;;;;;5054004;28;20463;-61
2022/01/09 06:39:41;;;;;;;65.78;30.15;;;51.60;1996.80;;;;;;5054025;28;20086;-62
2022/01/09 06:42:07;;;;;;;61.47;29.42;;;51.50;1971.20;;;;;;5053495;28;20097;-61
2022/01/09 06:44:32;;;;;;;66.20;29.85;;;51.40;1971.20;;;;;;5052956;28;20124;-61
2022/01/09 06:46:58;;;;;;;67.97;33.13;;;51.30;1945.60;;;;;;5053791;28;20136;-61
2022/01/09 06:49:24;;;;;;;66.75;29.98;;;51.20;1945.60;;;;;;5053906;28;20040;-63
2022/01/09 06:51:49;;;;;;;68.30;32.65;;;51.20;1945.60;;;;;;5053347;28;20055;-62
2022/01/09 06:54:15;;;;;;;73.07;34.20;;;51.30;2022.40;;;;;;5053589;28;20021;-61
2022/01/09 06:56:41;;;;;;;81.22;36.38;;;51.40;1996.80;;;;;;5053486;28;20447;-62
2022/01/09 06:59:07;;;;;;;81.05;35.75;;;51.30;1945.60;;;;;;5053355;28;20487;-61
2022/01/09 07:01:33;;;;;;;85.65;37.78;;;51.30;1996.80;;;;;;5053307;28;20037;-61
2022/01/09 07:04:00;;;;;;;77.95;38.33;;;51.40;2048.00;;;;;;5053665;28;20045;-60
2022/01/09 07:06:26;;;;;;;80.68;37.00;;;51.50;1971.20;;;;;;5053625;28;20055;-61
2022/01/09 07:08:52;;;;;;;100.80;46.13;;;51.60;1945.60;;;;;;5053625;28;20027;-61
2022/01/09 07:11:18;;;;;;;100.90;46.35;;;51.60;1996.80;;;;;;5053618;28;20037;-61
2022/01/09 07:13:44;;;;;;;108.72;49.10;;;51.70;2022.40;;;;;;5053392;28;20033;-61
2022/01/09 07:16:09;;;;;;;103.60;52.00;;;51.70;1945.60;;;;;;5052735;28;20033;-63
2022/01/09 07:18:35;;;;;;;159.23;77.40;;;51.60;1945.60;;;;;;5052908;28;20029;-64
2022/01/09 07:21:03;;;;;;;151.63;73.07;;;51.60;1996.80;;;;;;5053265;28;20049;-61
2022/01/09 07:23:29;;;;;;;130.38;60.65;;;51.70;2022.40;;;;;;5052360;28;20474;-61
2022/01/09 07:25:55;;;;;;;117.47;56.13;;;51.80;1971.20;;;;;;5052784;28;20394;-63
2022/01/09 07:28:21;;;;;;;105.65;54.38;;;51.70;1945.60;;;;;;5053498;28;20028;-61
2022/01/09 07:30:46;;;;;;;105.22;51.95;;;51.70;1945.60;;;;;;5053372;28;20478;-61
2022/01/09 07:33:12;;;;;;;101.03;49.72;;;51.70;1945.60;;;;;;5053530;28;20025;-61
2022/01/09 07:35:38;;;;;;;97.57;51.28;;;51.70;1971.20;;;;;;5053566;28;20021;-61
2022/01/09 07:38:04;;;;;;;103.85;51.17;;;51.80;1945.60;;;;;;5052905;28;20414;-61
2022/01/09 07:40:29;;;;;;;113.97;55.17;;;51.80;1945.60;;;;;;5053257;28;20402;-62
2022/01/09 07:42:55;;;;;;;131.93;63.05;;;51.90;1971.20;;;;;;5052392;28;20379;-60
2022/01/09 07:45:26;;;;;;;146.63;69.85;;;52.00;1971.20;;;;;;5053319;28;20036;-61
2022/01/09 07:47:58;;;;;;;139.95;66.60;;;52.10;1945.60;;;;;;5053265;28;20029;-61
2022/01/09 07:50:26;;;;;;;122.32;59.08;;;76.80;1945.60;;;;;;5052187;28;20033;-61
2022/01/09 07:52:53;;;;;;;113.32;53.35;;;76.90;1945.60;;;;;;5053095;28;20467;-61
2022/01/09 07:55:20;;;;;;;110.43;53.08;;;76.90;1945.60;;;;;;5055700;28;20044;-61
2022/01/09 07:57:47;;;;;;;120.50;56.72;;;76.90;1945.60;;;;;;5056915;28;20108;-61
2022/01/09 08:00:14;;;;;;;110.65;55.67;;;76.90;1996.80;;;;;;5056664;28;20045;-70
2022/01/09 08:02:41;;;;;;;110.82;55.53;;;76.90;2022.40;;;;;;5057053;28;20422;-61
2022/01/09 08:05:07;;;;;;;109.95;55.65;;;77.00;2022.40;;;;;;5057048;28;20063;-60
2022/01/09 08:07:33;;;;;;;189.00;78.10;;;77.10;1971.20;;;;;;5056191;28;20017;-61
2022/01/09 08:09:59;;;;;;;158.40;66.28;;;77.30;1945.60;;;;;;5057014;28;20463;-61
2022/01/09 08:12:24;;;;;;;121.95;56.45;;;77.30;1945.60;;;;;;5056874;28;20021;-61
2022/01/09 08:14:50;;;;;;;113.43;52.42;;;77.40;1945.60;;;;;;5056703;28;20399;-61
2022/01/09 08:17:16;;;;;;;90.95;47.58;;;77.40;1920.00;;;;;;5056846;28;20021;-61
2022/01/09 08:19:42;;;;;;;84.20;44.45;;;77.60;1945.60;;;;;;5056793;28;20379;-61
2022/01/09 08:22:09;;;;;;;90.32;46.92;;;77.60;1868.80;;;;;;5056659;28;20112;-61
2022/01/09 08:24:36;;;;;;;84.13;44.15;;;77.70;1894.40;;;;;;5056390;28;20048;-61
2022/01/09 08:27:03;;;;;;;78.72;41.70;;;102.40;1894.40;;;;;;5056454;28;20459;-61
2022/01/09 08:29:29;;;;;;;75.88;40.38;;;102.50;1843.20;;;;;;5056180;28;20463;-61
2022/01/09 08:31:55;;;;;;;68.10;38.22;;;77.70;1894.40;;;;;;5056652;28;20025;-61
2022/01/09 08:34:21;;;;;;;71.63;38.75;;;77.70;1894.40;;;;;;5056443;28;20052;-61
2022/01/09 08:36:46;;;;;;;89.82;45.78;;;77.70;1868.80;;;;;;5056176;28;20111;-60
2022/01/09 08:39:12;;;;;;;82.03;40.28;;;77.60;1945.60;;;;;;5056200;28;20116;-61
2022/01/09 08:41:39;;;;;;;71.93;37.42;;;77.70;1996.80;;;;;;5056035;28;20029;-62
2022/01/09 08:44:05;;;;;;;70.78;39.25;;;77.70;1920.00;;;;;;5056022;28;20021;-61
2022/01/09 08:46:32;;;;;;;77.18;40.05;;;102.40;1945.60;;;;;;5056222;28;20463;-61
2022/01/09 08:48:59;;;;;;;73.53;40.38;;;102.40;1868.80;;;;;;5056233;28;20025;-61
2022/01/09 08:51:26;;;;;;;73.10;40.33;;;102.40;1920.00;;;;;;5056114;28;20096;-61
2022/01/09 08:53:51;;;;;;;78.88;38.72;;;102.40;1920.00;;;;;;5055901;28;20048;-61
2022/01/09 08:56:19;;;;;;;85.25;42.85;;;77.70;1868.80;;;;;;5055961;28;20052;-61
2022/01/09 08:58:45;;;;;;;90.13;43.60;;;77.70;1945.60;;;;;;5055900;28;20055;-62
2022/01/09 09:01:11;;;;;;;84.93;44.45;;;102.40;1920.00;;;;;;5055736;28;20049;-62
2022/01/09 09:03:40;;;;;;;81.63;41.80;;;102.40;1945.60;;;;;;5055986;28;20035;-67
2022/01/09 09:06:14;;;;;;;74.03;39.25;;;102.40;1971.20;;;;;;5055073;28;20059;-63
2022/01/09 09:08:41;;;;;;;77.90;37.92;;;102.50;1996.80;;;;;;5055651;28;20025;-66
2022/01/09 09:11:09;;;;;;;79.80;40.00;;;102.60;2073.60;;;;;;5055862;28;20107;-65
2022/01/09 09:13:35;;;;;;;74.22;35.08;;;102.70;2048.00;;;;;;5055690;28;20134;-65
2022/01/09 09:16:02;;;;;;;68.82;36.75;;;102.70;1971.20;;;;;;5055762;28;20025;-66
2022/01/09 09:18:27;;;;;;;74.32;38.47;;;102.60;1971.20;;;;;;5055675;28;20025;-69
2022/01/09 09:20:53;;;;;;;162.35;86.43;;;102.70;1971.20;;;;;;5055307;28;20529;-72
2022/01/09 09:23:19;;;;;;;238.95;123.68;;;102.90;2227.20;;;;;;5055232;28;20155;-69
2022/01/09 09:25:46;;;;;;;127.60;69.15;;;103.30;2227.20;;;;;;5055492;28;20079;-70
2022/01/09 09:28:12;;;;;;;104.03;55.25;;;128.40;2150.40;;;;;;5055537;28;20463;-70
2022/01/09 09:30:38;;;;;;;79.97;40.10;;;128.70;2073.60;;;;;;5055507;28;20100;-69
2022/01/09 09:33:06;;;;;;;85.75;46.22;;;128.90;1945.60;;;;;;5055293;28;20399;-70
2022/01/09 09:35:32;;;;;;;84.47;44.20;;;128.90;1894.40;;;;;;5055185;28;20422;-65
2022/01/09 09:37:59;;;;;;;73.82;39.65;;;128.50;1894.40;;;;;;5053948;28;20124;-66
2022/01/09 09:40:26;;;;;;;77.45;42.53;;;128.40;1894.40;;;;;;5055561;28;20033;-68
2022/01/09 09:42:52;;;;;;;72.15;41.05;;;128.00;1920.00;;;;;;5053875;28;20021;-70
2022/01/09 09:45:18;;;;;;;79.35;44.35;;;103.10;1920.00;;;;;;5055152;28;20021;-69
2022/01/09 09:47:43;;;;;;;98.22;62.13;;;103.00;1945.60;;;;;;5054164;28;20017;-67
2022/01/09 09:50:13;;;;;;;81.47;46.33;;;103.00;1945.60;;;;;;5054288;28;20024;-63
2022/01/09 09:52:43;;;;;;;110.45;59.58;;;102.90;1945.60;;;;;;5054520;28;20021;-64
2022/01/09 09:55:10;;;;;;;140.95;74.30;;;102.90;1945.60;;;;;;5054815;28;20462;-63
2022/01/09 09:57:35;;;;;;;159.43;82.38;;;102.70;1945.60;;;;;;5054972;28;20048;-64
2022/01/09 10:00:10;;;;;;;172.82;80.70;;;102.70;1945.60;;;;;;5054438;28;20076;-63
2022/01/09 10:02:51;;;;;;;147.32;72.68;;;102.60;1945.60;;;;;;5054929;28;20060;-63
2022/01/09 10:05:23;;;;;;;162.40;74.90;;;102.60;1971.20;;;;;;5052712;28;20383;-64
2022/01/09 10:07:50;;;;;;;146.85;70.72;;;102.50;1971.20;;;;;;5054681;28;20050;-63
2022/01/09 10:10:19;;;;;;;149.10;72.00;;;102.50;1945.60;;;;;;5054636;28;20141;-63
2022/01/09 10:12:47;;;;;;;159.38;72.70;;;102.50;1971.20;;;;;;5054368;28;20082;-64
2022/01/09 10:15:20;;;;;;;150.73;68.30;;;102.50;1971.20;;;;;;5054337;28;20029;-64
2022/01/09 10:17:48;;;;;;;144.32;63.58;;;102.40;1971.20;;;;;;5053366;28;20394;-63
2022/01/09 10:20:23;;;;;;;144.77;65.43;;;77.70;1971.20;;;;;;5054283;28;20029;-63
2022/01/09 10:22:50;;;;;;;;;;;77.70;1996.80;;;;;;5055168;28;20124;-63
2022/01/09 10:25:32;;;;;;;182.23;85.13;;;77.60;1996.80;;;;;;5054341;28;20226;-73
2022/01/09 10:28:03;;;;;;;164.80;76.38;;;77.60;2022.40;;;;;;5054189;28;20078;-64
2022/01/09 10:30:32;;;;;;;155.00;67.63;;;77.60;2048.00;;;;;;5054292;28;20104;-65
2022/01/09 10:33:07;;;;;;;149.23;61.17;;;77.60;2048.00;;;;;;5054325;28;20029;-63
2022/01/09 10:35:34;;;;;;;140.45;59.30;;;77.60;2048.00;;;;;;5053832;28;20017;-66
2022/01/09 10:38:12;;;;;;;144.52;64.50;;;77.60;2048.00;;;;;;5055151;28;20078;-64
2022/01/09 10:40:39;;;;;;;158.65;68.60;;;77.70;2022.40;;;;;;5054227;28;20029;-64
2022/01/09 10:43:12;;;;;;;148.02;64.65;;;77.70;2022.40;;;;;;5053704;28;20064;-63
2022/01/09 10:45:43;;;;;;;148.18;58.90;;;77.70;2022.40;;;;;;5054272;28;20059;-65
2022/01/09 10:48:16;;;;;;;147.45;59.88;;;77.60;2073.60;;;;;;5053664;28;20029;-65
2022/01/09 10:50:44;;;;;;;133.07;56.97;;;77.60;2048.00;;;;;;5053818;28;20470;-69
2022/01/09 10:53:19;;;;;;;149.05;59.70;;;77.60;2048.00;;;;;;5053602;28;20108;-61
2022/01/09 10:55:48;;;;;;;162.52;71.03;;;77.60;1996.80;;;;;;5053926;28;20049;-64
2022/01/09 10:58:19;;;;;;;166.57;72.55;;;77.70;2022.40;;;;;;5054141;28;20025;-73
2022/01/09 11:00:46;;;;;;;177.35;73.28;;;77.70;2048.00;;;;;;5052966;28;20048;-67
2022/01/09 11:03:12;;;;;;;187.07;75.63;;;77.70;2124.80;;;;;;5053373;28;20025;-65
2022/01/09 11:05:39;;;;;;;195.48;76.40;;;102.40;2150.40;;;;;;5053484;28;20063;-67
2022/01/09 11:08:06;;;;;;;188.93;82.60;;;102.40;2124.80;;;;;;5053867;28;20463;-68
2022/01/09 11:10:33;;;;;;;179.48;75.07;;;102.40;2022.40;;;;;;5053499;28;20528;-67
2022/01/09 11:13:02;;;;;;;194.52;81.22;;;102.40;1996.80;;;;;;5053681;28;20013;-66
2022/01/09 11:15:29;;;;;;;172.27;76.78;;;102.50;2048.00;;;;;;5053590;28;20059;-66
2022/01/09 11:17:59;;;;;;;195.02;89.03;;;102.40;1971.20;;;;;;5053463;28;20032;-66
2022/01/09 11:20:25;;;;;;;202.23;88.18;;;102.40;2022.40;;;;;;5053063;28;20503;-68
2022/01/09 11:22:55;;;;;;;167.02;72.03;;;102.40;2022.40;;;;;;5052767;28;20051;-67
2022/01/09 11:25:42;;;;;;;152.82;64.65;;;102.50;1971.20;;;;;;5052215;28;20025;-66
2022/01/09 11:28:19;;;;;;;159.27;65.55;;;102.40;2022.40;;;;;;5053497;28;20059;-68
2022/01/09 11:31:10;;;;;;;185.70;78.93;;;102.60;2022.40;;;;;;5057442;28;20471;-66
2022/01/09 11:33:53;;;;;;;166.75;64.43;;;102.60;1996.80;;;;;;5057531;28;20029;-66
2022/01/09 11:36:34;;;;;;;150.30;64.07;;;102.50;2022.40;;;;;;5057316;28;20115;-70
2022/01/09 11:39:17;;;;;;;180.20;72.38;;;102.60;2073.60;;;;;;5057107;28;20028;-70
2022/01/09 11:41:45;;;;;;;150.15;61.72;;;102.40;1996.80;;;;;;5056846;28;20146;-66
2022/01/09 11:44:14;;;;;;;155.68;64.43;;;102.40;2048.00;;;;;;5057467;28;20040;-69
2022/01/09 11:47:01;;;;;;;174.20;72.72;;;102.50;1996.80;;;;;;5057143;28;20029;-65
2022/01/09 11:49:39;;;;;;;171.65;71.60;;;102.40;2022.40;;;;;;5057171;28;20025;-64
2022/01/09 11:52:06;;;;;;;173.40;70.18;;;102.40;2048.00;;;;;;5055883;28;20087;-64
2022/01/09 11:54:49;;;;;;;185.90;71.32;;;77.70;1996.80;;;;;;5057166;28;20029;-63
2022/01/09 11:57:20;;;;;;;180.40;72.88;;;102.40;2099.20;;;;;;5055511;28;20040;-66
2022/01/09 11:59:51;;;;;;;184.43;73.53;;;102.50;2048.00;;;;;;5055920;28;20494;-63
2022/01/09 12:02:18;;;;;;;168.13;71.20;;;102.50;1996.80;;;;;;5055715;28;20075;-63
2022/01/09 12:04:45;;;;;;;179.73;73.05;;;102.50;2022.40;;;;;;5055422;28;20021;-63